createdAt,value
2023-01-04T00:00:10.358Z,97038.19
2023-01-04T00:02:38.209Z,97165.97
2023-01-04T00:05:06.748Z,97176.81
2023-01-04T00:07:35.737Z,97145.78
2023-01-04T00:10:03.377Z,97158.59
2023-01-04T00:12:31.101Z,97170.22
2023-01-04T00:14:58.789Z,97163.03
2023-01-04T00:17:26.512Z,97132.88
2023-01-04T00:19:55.076Z,97000.91
2023-01-04T00:22:22.856Z,97120.84
2023-01-04T00:24:52.063Z,97147.13
2023-01-04T00:27:19.813Z,97063.72
2023-01-04T00:29:47.554Z,97127.81
2023-01-04T00:32:15.254Z,97150.09
2023-01-04T00:34:42.926Z,97109.03
2023-01-04T00:37:10.854Z,97140.81
2023-01-04T00:39:38.538Z,97062.94
2023-01-04T00:42:07.641Z,97082.00
2023-01-04T00:44:36.172Z,97161.09
2023-01-04T00:47:05.754Z,97160.31
2023-01-04T00:49:33.913Z,97147.41
2023-01-04T00:52:02.100Z,97122.13
2023-01-04T00:54:29.823Z,97148.66
2023-01-04T00:56:58.572Z,97132.31
2023-01-04T00:59:28.115Z,97136.44
2023-01-04T01:01:55.862Z,97079.59
2023-01-04T01:04:25.351Z,97139.00
2023-01-04T01:06:53.728Z,97161.59
2023-01-04T01:09:23.517Z,97143.34
2023-01-04T01:11:51.483Z,97134.69
2023-01-04T01:14:21.593Z,97110.25
2023-01-04T01:16:56.418Z,97138.72
2023-01-04T01:19:24.938Z,97139.53
2023-01-04T01:21:52.615Z,97135.94
2023-01-04T01:24:21.186Z,97108.97
2023-01-04T01:26:49.133Z,97080.63
2023-01-04T01:29:16.827Z,97103.13
2023-01-04T01:31:44.832Z,97016.22
2023-01-04T01:34:13.908Z,97104.09
2023-01-04T01:36:41.615Z,97096.00
2023-01-04T01:39:09.429Z,97164.00
2023-01-04T01:41:37.768Z,97054.03
2023-01-04T01:44:07.945Z,97140.41
2023-01-04T01:46:40.024Z,97101.47
2023-01-04T01:49:14.335Z,97169.28
2023-01-04T01:51:43.909Z,97135.47
2023-01-04T01:54:15.393Z,97124.44
2023-01-04T01:56:45.518Z,97173.50
2023-01-04T01:59:15.028Z,97157.66
2023-01-04T02:01:43.012Z,97114.97
2023-01-04T02:04:12.638Z,97115.56
2023-01-04T02:06:47.327Z,97151.31
2023-01-04T02:09:15.588Z,97186.44
2023-01-04T02:11:43.300Z,97137.53
2023-01-04T02:14:30.418Z,97135.75
2023-01-04T02:17:08.006Z,97157.41
2023-01-04T02:19:50.054Z,97132.56
2023-01-04T02:22:50.589Z,97163.84
2023-01-04T02:25:40.356Z,97159.06
2023-01-04T02:28:16.841Z,97085.22
2023-01-04T02:31:08.755Z,97135.00
2023-01-04T02:33:49.990Z,97143.00
2023-01-04T02:36:27.224Z,97132.56
2023-01-04T02:39:06.588Z,97078.44
2023-01-04T02:41:38.576Z,97140.59
2023-01-04T02:44:30.244Z,97062.00
2023-01-04T02:47:03.557Z,97157.88
2023-01-04T02:49:47.908Z,97138.63
2023-01-04T02:52:15.943Z,97115.19
2023-01-04T02:54:45.296Z,97096.94
2023-01-04T02:57:23.691Z,97061.22
2023-01-04T03:00:08.174Z,97040.78
2023-01-04T03:03:12.876Z,97107.69
2023-01-04T03:06:06.705Z,97053.19
2023-01-04T03:08:38.786Z,97116.56
2023-01-04T03:11:29.823Z,97113.72
2023-01-04T03:14:00.522Z,97030.56
2023-01-04T03:16:30.097Z,97003.13
2023-01-04T03:19:04.217Z,97116.19
2023-01-04T03:21:34.024Z,97093.31
2023-01-04T03:24:21.687Z,97091.72
2023-01-04T03:27:11.336Z,97119.56
2023-01-04T03:30:02.797Z,97127.81
2023-01-04T03:32:51.574Z,97113.78
2023-01-04T03:35:28.608Z,97105.94
2023-01-04T03:38:22.465Z,97112.34
2023-01-04T03:41:16.349Z,97091.50
2023-01-04T03:44:13.261Z,97097.34
2023-01-04T03:47:06.206Z,97098.31
2023-01-04T03:49:40.912Z,97081.91
2023-01-04T03:52:12.112Z,97014.16
2023-01-04T03:54:42.980Z,97083.69
2023-01-04T03:57:12.721Z,97054.84
2023-01-04T03:59:45.083Z,96970.88
2023-01-04T04:02:14.078Z,96985.50
2023-01-04T04:05:06.400Z,97056.25
2023-01-04T04:07:53.139Z,97040.00
2023-01-04T04:10:20.908Z,97068.03
2023-01-04T04:12:49.148Z,96923.78
2023-01-04T04:15:17.237Z,97062.81
2023-01-04T04:17:45.122Z,97055.25
2023-01-04T04:20:13.594Z,97050.81
2023-01-04T04:22:42.683Z,97067.25
2023-01-04T04:25:10.797Z,97063.03
2023-01-04T04:27:38.453Z,97062.22
2023-01-04T04:30:07.502Z,96951.03
2023-01-04T04:32:35.203Z,97034.94
2023-01-04T04:35:03.116Z,97072.00
2023-01-04T04:37:32.092Z,96954.19
2023-01-04T04:40:01.258Z,97024.88
2023-01-04T04:42:27.934Z,97040.66
2023-01-04T04:44:55.705Z,97019.81
2023-01-04T04:47:23.486Z,97036.22
2023-01-04T04:49:51.222Z,97033.63
2023-01-04T04:52:18.894Z,96956.56
2023-01-04T04:54:46.564Z,96911.03
2023-01-04T04:57:15.587Z,96935.28
2023-01-04T04:59:43.235Z,97043.00
2023-01-04T05:02:11.071Z,96865.84
2023-01-04T05:04:38.946Z,97025.16
2023-01-04T05:07:12.261Z,96960.53
2023-01-04T05:09:40.362Z,97021.13
2023-01-04T05:12:25.355Z,96975.72
2023-01-04T05:14:54.409Z,97030.06
2023-01-04T05:17:22.096Z,97017.13
2023-01-04T05:19:49.782Z,96950.63
2023-01-04T05:22:17.494Z,96980.47
2023-01-04T05:24:45.206Z,97037.94
2023-01-04T05:27:12.956Z,96901.38
2023-01-04T05:29:58.098Z,96972.66
2023-01-04T05:32:27.162Z,97015.91
2023-01-04T05:34:54.835Z,97001.09
2023-01-04T05:37:22.507Z,97025.13
2023-01-04T05:39:50.172Z,96936.81
2023-01-04T05:42:27.977Z,96980.28
2023-01-04T05:44:56.617Z,97045.00
2023-01-04T05:47:25.250Z,97035.59
2023-01-04T05:49:55.331Z,97054.63
2023-01-04T05:52:51.562Z,97050.81
2023-01-04T05:55:19.869Z,97039.97
2023-01-04T05:57:47.609Z,97043.59
2023-01-04T06:00:16.089Z,96964.03
2023-01-04T06:02:45.199Z,96984.25
2023-01-04T06:05:14.587Z,97001.50
2023-01-04T06:07:42.722Z,97030.75
2023-01-04T06:10:12.680Z,96962.16
2023-01-04T06:12:41.164Z,96992.66
2023-01-04T06:15:10.814Z,97038.78
2023-01-04T06:17:39.611Z,97048.81
2023-01-04T06:20:10.468Z,97010.72
2023-01-04T06:22:41.490Z,97043.81
2023-01-04T06:25:10.073Z,96961.84
2023-01-04T06:27:37.754Z,96990.72
2023-01-04T06:30:06.649Z,96925.78
2023-01-04T06:32:34.401Z,97050.03
2023-01-04T06:35:02.212Z,97015.16
2023-01-04T06:37:29.990Z,96953.84
2023-01-04T06:39:59.254Z,97035.53
2023-01-04T06:42:44.223Z,96968.44
2023-01-04T06:45:12.634Z,96995.00
2023-01-04T06:47:41.457Z,96983.56
2023-01-04T06:50:10.112Z,96983.38
2023-01-04T06:52:37.910Z,96987.94
2023-01-04T06:55:09.497Z,97016.00
2023-01-04T06:57:37.470Z,96971.38
2023-01-04T07:00:06.211Z,97009.63
2023-01-04T07:02:34.101Z,96992.03
2023-01-04T07:05:02.118Z,97000.44
2023-01-04T07:07:30.246Z,96953.41
2023-01-04T07:09:59.414Z,96959.22
2023-01-04T07:12:31.525Z,97003.09
2023-01-04T07:14:59.261Z,96893.38
2023-01-04T07:17:29.979Z,96976.25
2023-01-04T07:19:58.053Z,96934.81
2023-01-04T07:22:25.756Z,96912.59
2023-01-04T07:24:53.459Z,96991.88
2023-01-04T07:27:21.133Z,97003.28
2023-01-04T07:29:50.650Z,96934.59
2023-01-04T07:32:18.367Z,96982.28
2023-01-04T07:34:46.086Z,96930.81
2023-01-04T07:37:15.434Z,96982.66
2023-01-04T07:39:43.903Z,96897.16
2023-01-04T07:42:11.832Z,96967.84
2023-01-04T07:44:39.698Z,96933.38
2023-01-04T07:47:08.895Z,96908.78
2023-01-04T07:49:36.616Z,96943.59
2023-01-04T07:52:04.396Z,96943.56
2023-01-04T07:54:32.060Z,96906.47
2023-01-04T07:56:59.700Z,96929.06
2023-01-04T07:59:27.402Z,96889.63
2023-01-04T08:01:55.391Z,96953.81
2023-01-04T08:04:29.614Z,96968.84
2023-01-04T08:07:00.538Z,96885.34
2023-01-04T08:09:28.343Z,96929.13
2023-01-04T08:11:56.013Z,96878.53
2023-01-04T08:14:24.044Z,96941.09
2023-01-04T08:16:51.821Z,96890.72
2023-01-04T08:19:21.511Z,96950.22
2023-01-04T08:21:50.716Z,96932.19
2023-01-04T08:24:19.876Z,96976.00
2023-01-04T08:26:48.517Z,96969.34
2023-01-04T08:29:16.588Z,96976.06
2023-01-04T08:31:44.392Z,96963.19
2023-01-04T08:34:12.181Z,96892.00
2023-01-04T08:36:47.735Z,96964.50
2023-01-04T08:39:17.196Z,96974.78
2023-01-04T08:42:02.632Z,96972.63
2023-01-04T08:44:35.673Z,96976.69
2023-01-04T08:47:03.653Z,96945.56
2023-01-04T08:49:31.507Z,96982.25
2023-01-04T08:51:59.213Z,96953.53
2023-01-04T08:54:28.271Z,96977.78
2023-01-04T08:56:55.960Z,96954.66
2023-01-04T08:59:23.631Z,96937.06
2023-01-04T09:01:51.502Z,96867.56
2023-01-04T09:04:19.474Z,96936.09
2023-01-04T09:06:47.285Z,96893.69
2023-01-04T09:09:15.983Z,96951.34
2023-01-04T09:11:45.227Z,96921.84
2023-01-04T09:14:13.975Z,96940.97
2023-01-04T09:16:42.055Z,96923.66
2023-01-04T09:19:10.015Z,96860.88
2023-01-04T09:21:38.319Z,96881.94
2023-01-04T09:24:06.402Z,96942.91
2023-01-04T09:26:34.231Z,96898.34
2023-01-04T09:29:04.295Z,96881.03
2023-01-04T09:31:32.101Z,96931.75
2023-01-04T09:34:17.652Z,96929.09
2023-01-04T09:36:46.382Z,96946.59
2023-01-04T09:39:21.657Z,96942.34
2023-01-04T09:41:56.583Z,96922.88
2023-01-04T09:45:11.949Z,96902.88
2023-01-04T09:47:31.447Z,96934.94
2023-01-04T09:50:04.445Z,96937.28
2023-01-04T09:52:44.003Z,96926.69
2023-01-04T09:55:37.530Z,96859.56
2023-01-04T09:58:15.138Z,96938.81
2023-01-04T10:00:47.875Z,96849.84
2023-01-04T10:03:20.284Z,96919.13
2023-01-04T10:05:48.248Z,96931.91
2023-01-04T10:08:18.370Z,96934.22
2023-01-04T10:10:57.919Z,96863.34
2023-01-04T10:13:53.126Z,96810.63
2023-01-04T10:22:31.181Z,96881.44
2023-01-04T10:25:13.658Z,96895.22
2023-01-04T10:27:49.384Z,96885.88
2023-01-04T10:30:30.783Z,96792.91
2023-01-04T10:33:07.942Z,96870.81
2023-01-04T10:35:37.279Z,96831.50
2023-01-04T10:38:15.181Z,96887.44
2023-01-04T10:40:43.361Z,96872.53
2023-01-04T10:43:20.545Z,96848.44
2023-01-04T10:45:55.003Z,96847.81
2023-01-04T10:48:32.136Z,96792.06
2023-01-04T10:51:09.278Z,96769.28
2023-01-04T10:53:44.633Z,96852.03
2023-01-04T10:56:27.190Z,96833.16
2023-01-04T10:59:02.043Z,96779.75
2023-01-04T11:01:34.621Z,96830.03
2023-01-04T11:04:10.169Z,96766.16
2023-01-04T11:06:43.522Z,96821.31
2023-01-04T11:09:19.709Z,96801.88
2023-01-04T11:11:54.007Z,96774.47
2023-01-04T11:14:22.082Z,96786.72
2023-01-04T11:16:53.251Z,96756.97
2023-01-04T11:19:22.550Z,96773.88
2023-01-04T11:21:57.038Z,96758.66
2023-01-04T11:24:33.775Z,96800.50
2023-01-04T11:27:06.677Z,96730.19
2023-01-04T11:29:40.671Z,96727.34
2023-01-04T11:32:17.198Z,96808.75
2023-01-04T11:34:48.852Z,96816.78
2023-01-04T11:37:30.922Z,96821.38
2023-01-04T11:40:24.295Z,96804.97
2023-01-04T11:42:54.369Z,96808.72
2023-01-04T11:45:27.802Z,96810.91
2023-01-04T11:47:57.164Z,96796.28
2023-01-04T11:50:42.773Z,96792.03
2023-01-04T11:53:30.283Z,96782.13
2023-01-04T11:56:19.618Z,96775.41
2023-01-04T11:59:13.968Z,96780.66
2023-01-04T12:01:45.768Z,96782.78
2023-01-04T12:04:17.455Z,96778.56
2023-01-04T12:06:51.212Z,96781.16
2023-01-04T12:09:20.700Z,96744.63
2023-01-04T12:11:50.933Z,96761.34
2023-01-04T12:14:24.899Z,96755.44
2023-01-04T12:17:02.115Z,96619.09
2023-01-04T12:19:30.724Z,96739.81
2023-01-04T12:22:02.513Z,96733.94
2023-01-04T12:24:32.495Z,96688.06
2023-01-04T12:27:01.589Z,96648.47
2023-01-04T12:29:54.755Z,96739.81
2023-01-04T12:32:46.068Z,96737.81
2023-01-04T12:35:59.013Z,96736.28
2023-01-04T12:39:12.552Z,96727.75
2023-01-04T12:42:21.599Z,96710.38
2023-01-04T12:45:12.149Z,96718.75
2023-01-04T12:48:01.990Z,96712.59
2023-01-04T12:50:32.102Z,96693.63
2023-01-04T12:53:28.892Z,96693.69
2023-01-04T12:55:54.078Z,96691.03
2023-01-04T13:01:31.629Z,96673.53
2023-01-04T13:04:05.708Z,96700.22
2023-01-04T13:06:41.559Z,96640.31
2023-01-04T13:09:23.406Z,96549.72
2023-01-04T13:12:21.062Z,96704.78
2023-01-04T13:14:52.623Z,96707.84
2023-01-04T13:17:24.148Z,96708.97
2023-01-04T13:19:52.182Z,96701.06
2023-01-04T13:22:29.613Z,96699.19
2023-01-04T13:24:59.167Z,96694.25
2023-01-04T13:27:28.116Z,96694.69
2023-01-04T13:29:55.958Z,96681.25
2023-01-04T13:32:27.776Z,96662.00
2023-01-04T13:34:59.629Z,96683.72
2023-01-04T13:37:30.499Z,96677.44
2023-01-04T13:40:13.012Z,96599.63
2023-01-04T13:42:43.674Z,96611.19
2023-01-04T13:45:33.469Z,96685.38
2023-01-04T13:48:05.966Z,96658.66
2023-01-04T13:50:36.579Z,96636.53
2023-01-04T13:53:08.503Z,96602.88
2023-01-04T13:55:38.393Z,96618.75
2023-01-04T13:58:08.194Z,96667.00
2023-01-04T14:00:42.747Z,96669.66
2023-01-04T14:03:25.993Z,96649.19
2023-01-04T14:06:01.377Z,96631.47
2023-01-04T14:08:34.831Z,96661.13
2023-01-04T14:11:03.271Z,96534.22
2023-01-04T14:13:30.956Z,96671.06
2023-01-04T14:16:07.363Z,96679.50
2023-01-04T14:18:36.468Z,96637.56
2023-01-04T14:21:04.359Z,96545.22
2023-01-04T14:23:38.377Z,96552.22
2023-01-04T14:26:06.210Z,96667.81
2023-01-04T14:28:47.011Z,96658.00
2023-01-04T14:31:28.584Z,96671.16
2023-01-04T14:33:58.140Z,96665.28
2023-01-04T14:36:28.850Z,96611.94
2023-01-04T14:39:11.018Z,96551.66
2023-01-04T14:41:40.651Z,96662.78
2023-01-04T14:44:14.083Z,96651.69
2023-01-04T14:46:43.710Z,96654.94
2023-01-04T14:49:12.846Z,96647.28
2023-01-04T14:51:44.224Z,96585.78
2023-01-04T14:54:17.481Z,96621.44
2023-01-04T14:56:48.438Z,96618.84
2023-01-04T14:59:16.436Z,96584.53
2023-01-04T15:01:44.328Z,96537.81
2023-01-04T15:04:13.620Z,96629.75
2023-01-04T15:06:52.791Z,96606.19
2023-01-04T15:09:20.564Z,96600.44
2023-01-04T15:11:48.233Z,96552.03
2023-01-04T15:14:15.925Z,96597.53
2023-01-04T15:16:43.829Z,96489.41
2023-01-04T15:19:13.420Z,96598.28
2023-01-04T15:21:41.897Z,96597.75
2023-01-04T15:24:10.189Z,96530.34
2023-01-04T15:26:38.353Z,96590.59
2023-01-04T15:29:06.703Z,96458.75
2023-01-04T15:31:39.059Z,96592.75
2023-01-04T15:34:07.710Z,96478.66
2023-01-04T15:36:38.612Z,96597.25
2023-01-04T15:39:06.804Z,96588.81
2023-01-04T15:41:52.057Z,96593.84
2023-01-04T15:44:19.704Z,96585.47
2023-01-04T15:46:47.509Z,96580.88
2023-01-04T15:49:17.688Z,96456.47
2023-01-04T15:51:47.545Z,96469.94
2023-01-04T15:54:15.191Z,96562.09
2023-01-04T15:56:42.826Z,96557.41
2023-01-04T15:59:10.590Z,96568.75
2023-01-04T16:01:38.347Z,96558.19
2023-01-04T16:04:06.814Z,96580.66
2023-01-04T16:06:34.506Z,96585.88
2023-01-04T16:09:03.703Z,96584.03
2023-01-04T16:11:31.495Z,96589.53
2023-01-04T16:13:59.547Z,96583.22
2023-01-04T16:16:29.492Z,96460.84
2023-01-04T16:18:58.695Z,96583.53
2023-01-04T16:21:28.576Z,96587.44
2023-01-04T16:24:05.520Z,96541.50
2023-01-04T16:26:38.824Z,96572.69
2023-01-04T16:29:06.657Z,96575.22
2023-01-04T16:31:35.650Z,96440.56
2023-01-04T16:34:03.489Z,96574.78
2023-01-04T16:36:31.235Z,96587.44
2023-01-04T16:38:58.988Z,96558.34
2023-01-04T16:41:26.714Z,96560.75
2023-01-04T16:43:58.919Z,96399.13
2023-01-04T16:46:28.618Z,96551.03
2023-01-04T16:48:58.864Z,96576.41
2023-01-04T16:51:28.168Z,96572.75
2023-01-04T16:53:56.566Z,96579.06
2023-01-04T16:56:25.994Z,96587.22
2023-01-04T16:58:55.311Z,96563.97
2023-01-04T17:01:25.255Z,96532.47
2023-01-04T17:03:56.707Z,96582.41
2023-01-04T17:06:26.353Z,96599.56
2023-01-04T17:08:55.553Z,96597.41
2023-01-04T17:14:14.549Z,96609.50
2023-01-04T17:16:42.367Z,96599.75
2023-01-04T17:19:10.712Z,96515.97
2023-01-04T17:21:38.360Z,96470.72
2023-01-04T17:24:06.577Z,96601.53
2023-01-04T17:26:34.762Z,96592.06
2023-01-04T17:29:03.316Z,96539.72
2023-01-04T17:31:34.775Z,96502.22
2023-01-04T17:34:03.033Z,96582.50
2023-01-04T17:36:30.816Z,96563.50
2023-01-04T17:39:00.350Z,96584.09
2023-01-04T17:41:29.774Z,96570.38
2023-01-04T17:44:00.867Z,96583.84
2023-01-04T17:46:34.654Z,96566.94
2023-01-04T17:49:22.273Z,96573.56
2023-01-04T17:51:52.695Z,96523.38
2023-01-04T17:54:20.883Z,96582.50
2023-01-04T17:56:48.529Z,96590.88
2023-01-04T17:59:16.218Z,96576.63
2023-01-04T18:01:45.398Z,96383.28
2023-01-04T18:04:13.102Z,96574.41
2023-01-04T18:06:41.056Z,96574.75
2023-01-04T18:09:09.406Z,96577.44
2023-01-04T18:11:37.345Z,96543.16
2023-01-04T18:14:09.676Z,96575.66
2023-01-04T18:16:56.525Z,96524.59
2023-01-04T18:19:27.514Z,96555.63
2023-01-04T18:21:55.648Z,96548.53
2023-01-04T18:24:39.436Z,96505.44
2023-01-04T18:27:25.628Z,96525.28
2023-01-04T18:29:54.732Z,96546.38
2023-01-04T18:32:23.502Z,96533.00
2023-01-04T18:34:54.285Z,96529.31
2023-01-04T18:37:22.658Z,96528.31
2023-01-04T18:39:52.233Z,96436.41
2023-01-04T18:42:19.925Z,96520.66
2023-01-04T18:44:49.310Z,96524.34
2023-01-04T18:47:18.728Z,96520.16
2023-01-04T18:49:46.653Z,96436.13
2023-01-04T18:52:16.299Z,96463.69
2023-01-04T18:54:44.810Z,96492.50
2023-01-04T18:57:12.604Z,96498.84
2023-01-04T18:59:41.264Z,96402.50
2023-01-04T19:02:11.364Z,96419.66
2023-01-04T19:04:39.287Z,96509.94
2023-01-04T19:07:06.984Z,96417.59
2023-01-04T19:09:37.107Z,96499.41
2023-01-04T19:12:08.901Z,96446.13
2023-01-04T19:14:36.504Z,96412.91
2023-01-04T19:17:04.291Z,96494.41
2023-01-04T19:19:40.264Z,96504.16
2023-01-04T19:22:07.925Z,96504.44
2023-01-04T19:24:37.025Z,96362.00
2023-01-04T19:27:05.224Z,96441.44
2023-01-04T19:29:33.956Z,96480.50
2023-01-04T19:32:01.798Z,96478.66
2023-01-04T19:34:29.754Z,96465.22
2023-01-04T19:36:57.471Z,96459.69
2023-01-04T19:39:25.186Z,96342.84
2023-01-04T19:41:54.188Z,96436.97
2023-01-04T19:44:21.863Z,96433.59
2023-01-04T19:46:49.517Z,96469.97
2023-01-04T19:49:17.276Z,96458.38
2023-01-04T19:51:47.059Z,96436.25
2023-01-04T19:54:19.863Z,96447.59
2023-01-04T19:56:54.211Z,96413.03
2023-01-04T19:59:22.144Z,96446.03
2023-01-04T20:01:49.875Z,96443.41
2023-01-04T20:04:17.556Z,96444.19
2023-01-04T20:06:45.215Z,96461.34
2023-01-04T20:09:12.838Z,96456.59
2023-01-04T20:11:40.693Z,96395.13
2023-01-04T20:14:09.699Z,96395.13
2023-01-04T20:16:39.417Z,96436.31
2023-01-04T20:19:07.110Z,96438.41
2023-01-04T20:21:34.770Z,96316.31
2023-01-04T20:24:02.421Z,96446.06
2023-01-04T20:26:30.187Z,96467.41
2023-01-04T20:28:57.840Z,96386.72
2023-01-04T20:31:27.078Z,96456.09
2023-01-04T20:33:56.671Z,96470.56
2023-01-04T20:36:26.633Z,96454.25
2023-01-04T20:38:54.903Z,96390.91
2023-01-04T20:41:24.453Z,96443.97
2023-01-04T20:43:52.161Z,96426.81
2023-01-04T20:46:21.666Z,96477.44
2023-01-04T20:48:51.505Z,96483.22
2023-01-04T20:51:21.114Z,96390.19
2023-01-04T20:53:49.627Z,96405.97
2023-01-04T20:56:19.241Z,96463.97
2023-01-04T20:58:48.231Z,96465.28
2023-01-04T21:01:17.305Z,96455.75
2023-01-04T21:03:45.545Z,96463.41
2023-01-04T21:06:16.618Z,96367.50
2023-01-04T21:08:44.822Z,96304.25
2023-01-04T21:11:13.714Z,96450.75
2023-01-04T21:13:41.764Z,96446.25
2023-01-04T21:16:10.126Z,96441.78
2023-01-04T21:18:39.149Z,96455.75
2023-01-04T21:21:07.825Z,96434.38
2023-01-04T21:23:38.142Z,96406.72
2023-01-04T21:26:07.104Z,96444.91
2023-01-04T21:28:35.539Z,96441.22
2023-01-04T21:31:03.513Z,96451.03
2023-01-04T21:33:31.146Z,96441.00
2023-01-04T21:35:58.760Z,96348.00
2023-01-04T21:38:26.409Z,96435.47
2023-01-04T21:40:55.388Z,96384.34
2023-01-04T21:43:23.029Z,96381.19
2023-01-04T21:45:50.679Z,96410.94
2023-01-04T21:48:18.303Z,96334.22
2023-01-04T21:50:45.945Z,96380.34
2023-01-04T21:53:13.562Z,96442.81
2023-01-04T21:55:41.241Z,96448.09
2023-01-04T21:58:10.242Z,96436.50
2023-01-04T22:00:37.915Z,96444.13
2023-01-04T22:03:05.651Z,96443.03
2023-01-04T22:05:33.321Z,96437.50
2023-01-04T22:08:00.968Z,96438.78
2023-01-04T22:10:28.584Z,96450.31
2023-01-04T22:12:56.194Z,96442.44
2023-01-04T22:15:25.234Z,96403.38
2023-01-04T22:17:52.934Z,96363.13
2023-01-04T22:20:20.629Z,96446.06
2023-01-04T22:22:48.260Z,96462.16
2023-01-04T22:25:16.029Z,96454.31
2023-01-04T22:27:43.751Z,96460.09
2023-01-04T22:30:12.495Z,96461.91
2023-01-04T22:32:41.547Z,96459.28
2023-01-04T22:35:09.883Z,96460.09
2023-01-04T22:37:37.554Z,96338.97
2023-01-04T22:40:06.065Z,96347.97
2023-01-04T22:42:33.804Z,96351.81
2023-01-04T22:45:01.499Z,96441.91
2023-01-04T22:47:29.178Z,96357.44
2023-01-04T22:49:58.366Z,96465.59
2023-01-04T22:52:26.068Z,96463.44
2023-01-04T22:54:53.665Z,96464.50
2023-01-04T22:57:21.337Z,96471.94
2023-01-04T22:59:48.931Z,96463.03
2023-01-04T23:02:16.640Z,96471.97
2023-01-04T23:04:44.296Z,96484.63
2023-01-04T23:07:13.324Z,96468.81
2023-01-04T23:09:41.162Z,96439.28
2023-01-04T23:12:08.782Z,96335.84
2023-01-04T23:14:36.506Z,96467.28
2023-01-04T23:17:04.175Z,96362.81
2023-01-04T23:19:32.745Z,96444.63
2023-01-04T23:22:00.387Z,96434.88
2023-01-04T23:24:29.733Z,96444.91
2023-01-04T23:26:57.652Z,96422.78
2023-01-04T23:29:29.339Z,96401.72
2023-01-04T23:31:57.856Z,96412.78
2023-01-04T23:34:25.485Z,96418.06
2023-01-04T23:36:53.100Z,96413.56
2023-01-04T23:39:20.724Z,96423.06
2023-01-04T23:41:50.217Z,96274.34
2023-01-04T23:44:20.355Z,96419.44
2023-01-04T23:46:55.037Z,96417.28
2023-01-04T23:49:23.176Z,96415.97
2023-01-04T23:51:51.166Z,96412.84
2023-01-04T23:54:18.997Z,96384.06
2023-01-04T23:56:46.624Z,96394.09
2023-01-04T23:59:15.679Z,96412.03
